Time;durP1;ratioP1;P1;durP2;ratioP2;P2;SDS_P1;SDS_P2;PMS_P1;PMS_P2;Temp;Humidity;BMP_temperature;BMP_pressure;BME280_temperature;BME280_humidity;BME280_pressure;Samples;Min_cycle;Max_cycle;Signal;HPM_P1;HPM_P2
2021/06/02 00:00:12;;;;;;;10.80;6.00;;;;;;;;;;5101092;28;20207;-42
2021/06/02 00:02:39;;;;;;;7.75;4.95;;;;;;;;;;5106529;28;20181;-42
2021/06/02 00:05:06;;;;;;;7.65;5.15;;;;;;;;;;5098554;28;20227;-42
2021/06/02 00:07:32;;;;;;;9.55;5.15;;;;;;;;;;5098794;28;20178;-42
2021/06/02 00:09:58;;;;;;;7.13;4.90;;;;;;;;;;5112534;28;20184;-42
2021/06/02 00:12:24;;;;;;;8.40;5.10;;;;;;;;;;5097796;28;20204;-42
2021/06/02 00:14:50;;;;;;;9.30;5.45;;;;;;;;;;5098473;28;20501;-42
2021/06/02 00:17:17;;;;;;;8.43;5.00;;;;;;;;;;5107407;28;20197;-43
2021/06/02 00:19:43;;;;;;;6.35;4.40;;;;;;;;;;5104983;28;20235;-42
2021/06/02 00:22:09;;;;;;;8.20;5.18;;;;;;;;;;5103856;28;20204;-42
2021/06/02 00:24:36;;;;;;;7.97;5.22;;;;;;;;;;5117106;28;20186;-42
2021/06/02 00:27:05;;;;;;;7.43;4.85;;;;;;;;;;5098007;28;20173;-42
2021/06/02 00:29:32;;;;;;;9.73;5.35;;;;;;;;;;5098301;28;20231;-42
2021/06/02 00:31:58;;;;;;;6.38;4.50;;;;;;;;;;5107695;28;20620;-42
2021/06/02 00:34:25;;;;;;;8.10;5.00;;;;;;;;;;5115115;28;20185;-42
2021/06/02 00:36:51;;;;;;;7.07;4.65;;;;;;;;;;5098135;28;20272;-42
2021/06/02 00:39:17;;;;;;;8.10;4.65;;;;;;;;;;5112148;28;20197;-42
2021/06/02 00:41:44;;;;;;;5.15;4.10;;;;;;;;;;5114682;28;20200;-42
2021/06/02 00:44:13;;;;;;;6.97;4.75;;;;;;;;;;5097744;28;20193;-42
2021/06/02 00:46:40;;;;;;;6.20;4.43;;;;;;;;;;5098721;28;20383;-42
2021/06/02 00:49:07;;;;;;;6.88;4.07;;;;;;;;;;5097884;28;20173;-42
2021/06/02 00:51:33;;;;;;;6.32;4.28;;;;;;;;;;5097457;28;20311;-42
2021/06/02 00:53:59;;;;;;;5.30;3.80;;;;;;;;;;5098901;28;20180;-42
2021/06/02 00:56:52;;;;;;;6.57;4.13;;;;;;;;;;5097955;28;20235;-42
2021/06/02 00:59:19;;;;;;;5.60;3.70;;;;;;;;;;5065862;28;20221;-42
2021/06/02 01:01:47;;;;;;;5.93;4.40;;;;;;;;;;5096280;28;20209;-42
2021/06/02 01:04:13;;;;;;;6.63;4.00;;;;;;;;;;5101385;28;20181;-42
2021/06/02 01:06:40;;;;;;;4.75;3.80;;;;;;;;;;5117865;28;20187;-42
2021/06/02 01:09:07;;;;;;;6.03;4.07;;;;;;;;;;5101048;28;20170;-42
2021/06/02 01:11:33;;;;;;;6.03;4.25;;;;;;;;;;5117278;28;20174;-42
2021/06/02 01:14:00;;;;;;;6.50;4.28;;;;;;;;;;5117531;28;21047;-42
2021/06/02 01:16:28;;;;;;;5.90;4.45;;;;;;;;;;5099069;28;20284;-42
2021/06/02 01:18:54;;;;;;;6.28;4.38;;;;;;;;;;5097030;28;20476;-42
2021/06/02 01:21:22;;;;;;;6.85;4.25;;;;;;;;;;5096617;28;20221;-42
2021/06/02 01:23:52;;;;;;;7.82;4.45;;;;;;;;;;5098411;28;20170;-42
2021/06/02 01:26:18;;;;;;;5.68;4.00;;;;;;;;;;5096823;28;20166;-42
2021/06/02 01:28:45;;;;;;;4.38;3.42;;;;;;;;;;5106742;28;20188;-42
2021/06/02 01:31:15;;;;;;;4.82;3.90;;;;;;;;;;5112113;28;20246;-42
2021/06/02 01:33:49;;;;;;;5.70;3.95;;;;;;;;;;5107562;28;20173;-42
2021/06/02 01:36:19;;;;;;;5.57;3.72;;;;;;;;;;5097174;28;20184;-42
2021/06/02 01:38:54;;;;;;;4.68;3.50;;;;;;;;;;5097201;28;20204;-42
2021/06/02 01:41:27;;;;;;;5.45;4.25;;;;;;;;;;5103203;28;20675;-42
2021/06/02 01:44:12;;;;;;;5.03;3.80;;;;;;;;;;5096898;28;20177;-42
2021/06/02 01:46:56;;;;;;;5.32;3.70;;;;;;;;;;5096773;28;20174;-42
2021/06/02 01:49:41;;;;;;;4.03;3.58;;;;;;;;;;5099527;28;20185;-42
2021/06/02 01:52:26;;;;;;;4.40;3.38;;;;;;;;;;5114742;28;20205;-42
2021/06/02 01:55:04;;;;;;;7.18;4.05;;;;;;;;;;5114046;28;20181;-42
2021/06/02 01:57:48;;;;;;;5.45;3.80;;;;;;;;;;5079852;28;20557;-42
2021/06/02 02:00:26;;;;;;;4.03;3.40;;;;;;;;;;5114986;28;20185;-42
2021/06/02 02:02:55;;;;;;;5.10;3.53;;;;;;;;;;5098239;28;20177;-42
2021/06/02 02:05:32;;;;;;;4.75;3.40;;;;;;;;;;5096645;28;20178;-42
2021/06/02 02:08:01;;;;;;;5.25;3.53;;;;;;;;;;5101238;28;20193;-42
2021/06/02 02:10:45;;;;;;;4.97;3.35;;;;;;;;;;5116376;28;20252;-42
2021/06/02 02:13:11;;;;;;;4.85;3.58;;;;;;;;;;5116425;28;20210;-42
2021/06/02 02:15:40;;;;;;;4.30;3.53;;;;;;;;;;5106599;28;20201;-42
2021/06/02 02:18:25;;;;;;;3.85;3.25;;;;;;;;;;5095384;28;20174;-42
2021/06/02 02:20:51;;;;;;;6.32;3.67;;;;;;;;;;5099264;28;20500;-42
2021/06/02 02:23:17;;;;;;;5.05;3.30;;;;;;;;;;5115637;28;20252;-42
2021/06/02 02:25:50;;;;;;;5.28;3.55;;;;;;;;;;5115202;28;20295;-42
2021/06/02 02:28:22;;;;;;;3.58;3.08;;;;;;;;;;5108525;28;20182;-42
2021/06/02 02:30:56;;;;;;;3.50;3.20;;;;;;;;;;5095278;28;20446;-42
2021/06/02 02:33:41;;;;;;;3.50;3.00;;;;;;;;;;5095539;28;20665;-42
2021/06/02 02:36:12;;;;;;;5.43;3.55;;;;;;;;;;5096194;28;20265;-42
2021/06/02 02:38:44;;;;;;;4.07;3.67;;;;;;;;;;5106878;28;20196;-42
2021/06/02 02:41:13;;;;;;;3.88;3.47;;;;;;;;;;5115091;28;20472;-42
2021/06/02 02:43:58;;;;;;;5.30;3.50;;;;;;;;;;5090233;28;20178;-42
2021/06/02 02:46:33;;;;;;;5.45;3.20;;;;;;;;;;5095456;28;20241;-42
2021/06/02 02:49:19;;;;;;;3.80;3.00;;;;;;;;;;5102655;28;20173;-42
2021/06/02 02:52:06;;;;;;;4.70;3.28;;;;;;;;;;5049380;28;20182;-42
2021/06/02 02:54:52;;;;;;;3.22;2.90;;;;;;;;;;5075275;28;20189;-42
2021/06/02 02:57:24;;;;;;;3.13;2.83;;;;;;;;;;5078917;28;20228;-42
2021/06/02 02:59:56;;;;;;;4.00;3.05;;;;;;;;;;5095496;28;20268;-42
2021/06/02 03:02:23;;;;;;;4.70;3.15;;;;;;;;;;5098334;28;20203;-42
2021/06/02 03:04:51;;;;;;;3.65;3.15;;;;;;;;;;5115689;28;20170;-42
2021/06/02 03:07:17;;;;;;;4.60;3.13;;;;;;;;;;5115638;28;20165;-42
2021/06/02 03:09:51;;;;;;;3.00;2.50;;;;;;;;;;5096642;28;20165;-42
2021/06/02 03:12:17;;;;;;;3.95;2.60;;;;;;;;;;5094927;28;20192;-42
2021/06/02 03:15:06;;;;;;;3.30;2.80;;;;;;;;;;5096870;28;20177;-42
2021/06/02 03:17:32;;;;;;;3.33;2.97;;;;;;;;;;5042544;28;20645;-42
2021/06/02 03:20:07;;;;;;;3.50;3.20;;;;;;;;;;5074960;28;20269;-42
2021/06/02 03:22:52;;;;;;;3.08;2.85;;;;;;;;;;5073981;28;20205;-42
2021/06/02 03:25:21;;;;;;;3.22;2.67;;;;;;;;;;5101667;28;20177;-42
2021/06/02 03:27:53;;;;;;;3.08;2.80;;;;;;;;;;5105940;28;20211;-42
2021/06/02 03:30:30;;;;;;;3.42;2.90;;;;;;;;;;5113836;28;20191;-42
2021/06/02 03:33:19;;;;;;;3.53;2.67;;;;;;;;;;5115377;28;20169;-42
2021/06/02 03:35:57;;;;;;;3.55;2.83;;;;;;;;;;5045480;28;20226;-42
2021/06/02 03:38:42;;;;;;;4.70;3.20;;;;;;;;;;5088290;28;20174;-42
2021/06/02 03:41:12;;;;;;;2.65;2.45;;;;;;;;;;5095788;28;20197;-42
2021/06/02 03:43:43;;;;;;;2.42;2.22;;;;;;;;;;5102643;28;20290;-42
2021/06/02 03:46:28;;;;;;;3.00;2.50;;;;;;;;;;5100098;28;20186;-42
2021/06/02 03:49:13;;;;;;;2.55;2.35;;;;;;;;;;5095945;28;20170;-42
2021/06/02 03:51:58;;;;;;;3.17;2.58;;;;;;;;;;5095065;28;20181;-42
2021/06/02 03:54:46;;;;;;;3.75;2.70;;;;;;;;;;5094687;28;20174;-42
2021/06/02 03:57:20;;;;;;;3.30;2.58;;;;;;;;;;5086915;28;20205;-42
2021/06/02 03:59:55;;;;;;;2.80;2.50;;;;;;;;;;5115054;28;20166;-42
2021/06/02 04:02:25;;;;;;;3.22;2.35;;;;;;;;;;5114461;28;20326;-42
2021/06/02 04:05:09;;;;;;;2.70;2.50;;;;;;;;;;5107475;28;20501;-42
2021/06/02 04:07:44;;;;;;;3.95;2.30;;;;;;;;;;5094589;28;20541;-42
2021/06/02 04:10:13;;;;;;;2.72;2.40;;;;;;;;;;5094625;28;20177;-42
2021/06/02 04:13:11;;;;;;;3.17;2.63;;;;;;;;;;5094291;28;20260;-42
2021/06/02 04:15:38;;;;;;;3.35;2.58;;;;;;;;;;5062963;28;20217;-42
2021/06/02 04:18:04;;;;;;;3.40;2.63;;;;;;;;;;5112899;28;20602;-42
2021/06/02 04:20:30;;;;;;;4.15;2.42;;;;;;;;;;5094177;28;20212;-42
2021/06/02 04:22:58;;;;;;;2.63;2.42;;;;;;;;;;5094387;28;20166;-42
2021/06/02 04:25:24;;;;;;;3.22;2.85;;;;;;;;;;5103341;28;20188;-42
2021/06/02 04:27:50;;;;;;;2.58;2.38;;;;;;;;;;5101353;28;20573;-42
2021/06/02 04:30:16;;;;;;;2.45;2.25;;;;;;;;;;5094315;28;20211;-42
2021/06/02 04:32:44;;;;;;;2.55;2.20;;;;;;;;;;5093871;28;20177;-42
2021/06/02 04:35:14;;;;;;;3.60;2.33;;;;;;;;;;5105226;28;20173;-42
2021/06/02 04:37:40;;;;;;;2.97;2.67;;;;;;;;;;5118411;28;20162;-42
2021/06/02 04:40:07;;;;;;;2.42;2.22;;;;;;;;;;5099853;28;20174;-42
2021/06/02 04:42:37;;;;;;;2.75;2.40;;;;;;;;;;5097302;28;20254;-42
2021/06/02 04:45:07;;;;;;;2.75;2.45;;;;;;;;;;5098108;28;20263;-42
2021/06/02 04:47:33;;;;;;;3.13;2.50;;;;;;;;;;5105638;28;20181;-42
2021/06/02 04:50:18;;;;;;;2.35;2.15;;;;;;;;;;5115462;28;20458;-42
2021/06/02 04:53:04;;;;;;;2.42;2.22;;;;;;;;;;5115195;28;20248;-42
2021/06/02 04:55:34;;;;;;;2.83;2.22;;;;;;;;;;5112977;28;20582;-42
2021/06/02 04:58:18;;;;;;;2.97;2.55;;;;;;;;;;5097748;28;20338;-42
2021/06/02 05:01:03;;;;;;;2.25;2.05;;;;;;;;;;5076870;28;20446;-42
2021/06/02 05:03:29;;;;;;;2.25;2.05;;;;;;;;;;5078176;28;20449;-42
2021/06/02 05:05:58;;;;;;;2.30;2.10;;;;;;;;;;5097630;28;20269;-42
2021/06/02 05:08:30;;;;;;;2.78;2.42;;;;;;;;;;5112710;28;20170;-42
2021/06/02 05:11:11;;;;;;;2.25;2.03;;;;;;;;;;5096909;28;20194;-42
2021/06/02 05:13:49;;;;;;;3.50;2.25;;;;;;;;;;5084080;28;20508;-42
2021/06/02 05:16:15;;;;;;;5.57;2.50;;;;;;;;;;5100854;28;20205;-44
2021/06/02 05:19:03;;;;;;;2.10;1.90;;;;;;;;;;5102884;28;20191;-42
2021/06/02 05:22:07;;;;;;;4.60;2.35;;;;;;;;;;5102543;28;20453;-42
2021/06/02 05:25:03;;;;;;;3.58;2.25;;;;;;;;;;5097729;28;20223;-42
2021/06/02 05:27:47;;;;;;;5.35;2.40;;;;;;;;;;5114097;28;20169;-42
2021/06/02 05:30:13;;;;;;;3.22;2.20;;;;;;;;;;5098702;28;20193;-42
2021/06/02 05:32:58;;;;;;;4.18;2.20;;;;;;;;;;5096549;28;20181;-42
2021/06/02 05:35:42;;;;;;;5.38;2.40;;;;;;;;;;5114693;28;20218;-42
2021/06/02 05:38:23;;;;;;;3.22;2.00;;;;;;;;;;5100762;28;20192;-43
2021/06/02 05:40:50;;;;;;;2.72;2.45;;;;;;;;;;5104470;28;20202;-42
2021/06/02 05:43:32;;;;;;;3.38;2.60;;;;;;;;;;5097175;28;20177;-42
2021/06/02 05:46:17;;;;;;;4.63;2.17;;;;;;;;;;5096574;28;20269;-42
2021/06/02 05:49:01;;;;;;;3.90;2.70;;;;;;;;;;5105326;28;20177;-42
2021/06/02 05:51:51;;;;;;;2.97;2.38;;;;;;;;;;5102452;28;20173;-42
2021/06/02 05:54:35;;;;;;;4.45;2.40;;;;;;;;;;5096826;28;20564;-42
2021/06/02 05:57:04;;;;;;;3.50;2.35;;;;;;;;;;5097848;28;20277;-42
2021/06/02 05:59:36;;;;;;;4.13;2.35;;;;;;;;;;5096426;28;20182;-42
2021/06/02 06:02:21;;;;;;;3.78;2.38;;;;;;;;;;5096019;28;20209;-42
2021/06/02 06:04:59;;;;;;;3.13;2.28;;;;;;;;;;5088397;28;20185;-42
2021/06/02 06:07:34;;;;;;;3.45;2.28;;;;;;;;;;5096240;28;20441;-42
2021/06/02 06:10:05;;;;;;;4.78;2.67;;;;;;;;;;5096584;28;20586;-42
2021/06/02 06:12:46;;;;;;;4.35;2.53;;;;;;;;;;5096170;28;20223;-42
2021/06/02 06:15:27;;;;;;;3.58;2.20;;;;;;;;;;5097338;28;20204;-42
2021/06/02 06:17:53;;;;;;;2.42;2.22;;;;;;;;;;5109821;28;20586;-42
2021/06/02 06:20:19;;;;;;;3.13;2.20;;;;;;;;;;5095957;28;20189;-42
2021/06/02 06:22:54;;;;;;;2.47;2.10;;;;;;;;;;5095780;28;20588;-42
2021/06/02 06:25:23;;;;;;;3.58;2.42;;;;;;;;;;5106743;28;20168;-42
2021/06/02 06:27:55;;;;;;;3.10;2.20;;;;;;;;;;5116273;28;20169;-42
2021/06/02 06:30:24;;;;;;;6.00;2.28;;;;;;;;;;5102802;28;20186;-42
2021/06/02 06:32:53;;;;;;;2.53;2.28;;;;;;;;;;5103862;28;20280;-42
2021/06/02 06:35:19;;;;;;;2.67;2.00;;;;;;;;;;5116318;28;20174;-42
2021/06/02 06:37:49;;;;;;;2.90;2.10;;;;;;;;;;5104427;28;20197;-42
2021/06/02 06:40:27;;;;;;;3.15;2.13;;;;;;;;;;5096431;28;20493;-42
2021/06/02 06:42:54;;;;;;;3.70;2.38;;;;;;;;;;5115679;28;20466;-42
2021/06/02 06:45:34;;;;;;;2.95;2.10;;;;;;;;;;5095662;28;20178;-43
2021/06/02 06:48:08;;;;;;;2.53;2.10;;;;;;;;;;5095577;28;20189;-42
2021/06/02 06:50:34;;;;;;;2.38;2.03;;;;;;;;;;5110325;28;20185;-42
2021/06/02 06:53:02;;;;;;;2.55;1.80;;;;;;;;;;5106041;28;20280;-42
2021/06/02 06:55:28;;;;;;;4.10;1.90;;;;;;;;;;5100068;28;20182;-42
2021/06/02 06:57:55;;;;;;;2.80;2.13;;;;;;;;;;5101573;28;20227;-42
2021/06/02 07:00:21;;;;;;;3.28;2.25;;;;;;;;;;5098805;28;20216;-42
2021/06/02 07:02:47;;;;;;;2.10;1.98;;;;;;;;;;5112738;28;20185;-42
2021/06/02 07:05:13;;;;;;;3.00;2.25;;;;;;;;;;5115624;28;20597;-42
2021/06/02 07:07:41;;;;;;;2.90;1.98;;;;;;;;;;5115629;28;20172;-42
2021/06/02 07:10:08;;;;;;;2.88;1.90;;;;;;;;;;5108555;28;20265;-42
2021/06/02 07:12:36;;;;;;;2.33;2.13;;;;;;;;;;5098736;28;20204;-42
2021/06/02 07:15:04;;;;;;;2.65;2.30;;;;;;;;;;5095187;28;20189;-42
2021/06/02 07:17:31;;;;;;;2.22;1.80;;;;;;;;;;5095009;28;20166;-42
2021/06/02 07:19:59;;;;;;;3.67;2.20;;;;;;;;;;5103857;28;20197;-42
2021/06/02 07:22:26;;;;;;;2.42;1.90;;;;;;;;;;5114698;28;20234;-42
2021/06/02 07:24:55;;;;;;;2.92;2.03;;;;;;;;;;5108800;28;20299;-42
2021/06/02 07:27:21;;;;;;;4.40;1.98;;;;;;;;;;5099364;28;20181;-42
2021/06/02 07:29:47;;;;;;;2.30;1.95;;;;;;;;;;5104145;28;20199;-42
2021/06/02 07:32:13;;;;;;;2.22;1.90;;;;;;;;;;5098410;28;20593;-42
2021/06/02 07:34:39;;;;;;;2.53;2.00;;;;;;;;;;5105537;28;20181;-42
2021/06/02 07:37:05;;;;;;;2.20;1.90;;;;;;;;;;5096795;28;20467;-43
2021/06/02 07:39:31;;;;;;;2.58;2.00;;;;;;;;;;5095887;28;20189;-42
2021/06/02 07:41:57;;;;;;;2.20;2.00;;;;;;;;;;5094254;28;20276;-42
2021/06/02 07:44:23;;;;;;;2.70;2.00;;;;;;;;;;5094782;28;20547;-42
2021/06/02 07:46:50;;;;;;;4.60;2.47;;;;;;;;;;5099968;28;20180;-42
2021/06/02 07:49:16;;;;;;;7.97;2.40;;;;;;;;;;5107748;28;20180;-42
2021/06/02 07:51:42;;;;;;;3.75;1.90;;;;;;;;;;5104329;28;20177;-45
2021/06/02 07:54:08;;;;;;;5.40;2.17;;;;;;;;;;5095492;28;20174;-42
2021/06/02 07:56:34;;;;;;;3.58;2.10;;;;;;;;;;5103126;28;20181;-42
2021/06/02 07:59:01;;;;;;;3.88;2.33;;;;;;;;;;5105502;28;20185;-42
2021/06/02 08:01:28;;;;;;;3.50;2.50;;;;;;;;;;5098679;28;20468;-42
2021/06/02 08:03:54;;;;;;;4.13;2.40;;;;;;;;;;5094455;28;20162;-42
2021/06/02 08:06:20;;;;;;;5.38;2.78;;;;;;;;;;5098662;28;20178;-43
2021/06/02 08:08:46;;;;;;;5.00;2.30;;;;;;;;;;5094073;28;20174;-42
2021/06/02 08:11:12;;;;;;;4.55;2.55;;;;;;;;;;5099154;28;20200;-42
2021/06/02 08:13:38;;;;;;;7.25;2.40;;;;;;;;;;5111600;28;20203;-43
2021/06/02 08:16:04;;;;;;;6.60;2.50;;;;;;;;;;5113847;28;20186;-42
2021/06/02 08:18:31;;;;;;;3.30;2.30;;;;;;;;;;5098408;28;20189;-42
2021/06/02 08:20:57;;;;;;;9.48;2.90;;;;;;;;;;5111863;28;20582;-42
2021/06/02 08:23:23;;;;;;;4.20;2.63;;;;;;;;;;5104625;28;20177;-42
2021/06/02 08:25:50;;;;;;;5.03;2.60;;;;;;;;;;5113194;28;20181;-42
2021/06/02 08:28:16;;;;;;;3.13;2.40;;;;;;;;;;5096504;28;20229;-42
2021/06/02 08:30:43;;;;;;;4.13;2.60;;;;;;;;;;5107573;28;20238;-42
2021/06/02 08:33:08;;;;;;;8.88;2.85;;;;;;;;;;5118602;28;20225;-42
2021/06/02 08:35:34;;;;;;;8.20;3.05;;;;;;;;;;5118136;28;20181;-42
2021/06/02 08:38:01;;;;;;;5.90;2.95;;;;;;;;;;5099248;28;20595;-42
2021/06/02 08:40:28;;;;;;;5.90;2.70;;;;;;;;;;5098234;28;20181;-42
2021/06/02 08:42:54;;;;;;;7.05;2.55;;;;;;;;;;5098214;28;20253;-42
2021/06/02 08:45:20;;;;;;;3.72;2.53;;;;;;;;;;5106067;28;20302;-42
2021/06/02 08:47:48;;;;;;;6.28;2.03;;;;;;;;;;5117504;28;20169;-42
2021/06/02 08:50:15;;;;;;;3.25;2.25;;;;;;;;;;5101329;28;20568;-42
2021/06/02 08:52:41;;;;;;;4.55;2.30;;;;;;;;;;5104973;28;20192;-42
2021/06/02 08:55:09;;;;;;;3.13;2.10;;;;;;;;;;5110009;28;20580;-42
2021/06/02 08:57:38;;;;;;;4.70;2.20;;;;;;;;;;5100893;28;20345;-42
2021/06/02 09:00:06;;;;;;;5.60;2.33;;;;;;;;;;5107414;28;20185;-42
2021/06/02 09:02:32;;;;;;;4.65;2.47;;;;;;;;;;5106453;28;20475;-42
2021/06/02 09:04:58;;;;;;;5.53;2.50;;;;;;;;;;5105375;28;20570;-43
2021/06/02 09:07:25;;;;;;;4.45;2.08;;;;;;;;;;5097574;28;20223;-42
2021/06/02 09:09:52;;;;;;;3.35;2.60;;;;;;;;;;5100028;28;20196;-42
2021/06/02 09:12:31;;;;;;;3.95;2.20;;;;;;;;;;5105810;28;20450;-42
2021/06/02 09:15:00;;;;;;;3.38;2.03;;;;;;;;;;5117660;28;20591;-42
2021/06/02 09:17:26;;;;;;;6.07;2.20;;;;;;;;;;5107438;28;20201;-42
2021/06/02 09:19:55;;;;;;;4.65;2.40;;;;;;;;;;5097042;28;20189;-42
2021/06/02 09:22:21;;;;;;;3.70;2.00;;;;;;;;;;5095938;28;20576;-42
2021/06/02 09:24:50;;;;;;;3.45;1.92;;;;;;;;;;5105190;28;20458;-42
2021/06/02 09:27:17;;;;;;;5.85;2.30;;;;;;;;;;5109321;28;20186;-42
2021/06/02 09:29:50;;;;;;;4.68;2.35;;;;;;;;;;5097055;28;20222;-42
2021/06/02 09:32:16;;;;;;;2.72;2.00;;;;;;;;;;5096870;28;20169;-43
2021/06/02 09:34:42;;;;;;;2.85;1.80;;;;;;;;;;5082345;28;20185;-42
2021/06/02 09:37:09;;;;;;;3.42;1.90;;;;;;;;;;5107622;28;20237;-42
2021/06/02 09:39:39;;;;;;;3.53;1.85;;;;;;;;;;5117298;28;20173;-42
2021/06/02 09:42:16;;;;;;;2.42;1.83;;;;;;;;;;5116574;28;20242;-42
2021/06/02 09:44:42;;;;;;;4.30;1.88;;;;;;;;;;5100304;28;20589;-42
2021/06/02 09:47:09;;;;;;;4.03;2.05;;;;;;;;;;5097012;28;20506;-42
2021/06/02 09:49:54;;;;;;;2.35;1.90;;;;;;;;;;5109672;28;20258;-42
2021/06/02 09:52:41;;;;;;;3.30;2.03;;;;;;;;;;5116589;28;20173;-42
2021/06/02 09:55:14;;;;;;;3.08;1.90;;;;;;;;;;5116377;28;20253;-42
2021/06/02 09:57:40;;;;;;;5.70;2.05;;;;;;;;;;5097670;28;20209;-42
2021/06/02 10:00:08;;;;;;;3.88;1.90;;;;;;;;;;5097737;28;20181;-42
2021/06/02 10:02:34;;;;;;;5.63;1.95;;;;;;;;;;5105892;28;20193;-42
2021/06/02 10:05:00;;;;;;;3.03;2.15;;;;;;;;;;5096131;28;20218;-42
2021/06/02 10:07:26;;;;;;;3.55;1.75;;;;;;;;;;5116152;28;20214;-42
2021/06/02 10:09:53;;;;;;;3.22;1.73;;;;;;;;;;5116788;28;20604;-42
2021/06/02 10:12:19;;;;;;;3.83;2.08;;;;;;;;;;5109876;28;20195;-42
2021/06/02 10:14:55;;;;;;;1.75;1.63;;;;;;;;;;5096160;28;20170;-42
2021/06/02 10:17:28;;;;;;;3.42;1.75;;;;;;;;;;5084549;28;20209;-42
2021/06/02 10:19:55;;;;;;;2.05;1.58;;;;;;;;;;5096218;28;20197;-42
2021/06/02 10:22:28;;;;;;;2.85;1.90;;;;;;;;;;5095457;28;20205;-42
2021/06/02 10:24:58;;;;;;;5.10;1.85;;;;;;;;;;5096009;28;20189;-42
2021/06/02 10:27:25;;;;;;;3.88;2.08;;;;;;;;;;5096314;28;20158;-42
2021/06/02 10:29:51;;;;;;;3.00;2.00;;;;;;;;;;5096086;28;20182;-42
2021/06/02 10:32:18;;;;;;;1.88;1.65;;;;;;;;;;5094876;28;20181;-42
2021/06/02 10:34:45;;;;;;;3.78;1.80;;;;;;;;;;5078179;28;20177;-42
2021/06/02 10:37:18;;;;;;;2.97;1.73;;;;;;;;;;5095810;28;20173;-42
2021/06/02 10:40:04;;;;;;;2.72;1.73;;;;;;;;;;5095850;28;20258;-42
2021/06/02 10:42:30;;;;;;;2.40;1.83;;;;;;;;;;5095011;28;20640;-42
2021/06/02 10:45:00;;;;;;;1.52;1.40;;;;;;;;;;5095682;28;20245;-42
2021/06/02 10:47:27;;;;;;;3.35;1.73;;;;;;;;;;5095294;28;20493;-42
2021/06/02 10:49:53;;;;;;;2.67;1.60;;;;;;;;;;5095660;28;20197;-42
2021/06/02 10:52:39;;;;;;;4.30;1.88;;;;;;;;;;5114926;28;20188;-42
2021/06/02 10:55:31;;;;;;;1.92;1.60;;;;;;;;;;5096283;28;20264;-42
2021/06/02 10:58:16;;;;;;;3.33;1.67;;;;;;;;;;5095776;28;20189;-42
2021/06/02 11:00:42;;;;;;;2.25;1.77;;;;;;;;;;5107271;28;20302;-42
2021/06/02 11:03:18;;;;;;;2.40;1.90;;;;;;;;;;5097341;28;20214;-42
2021/06/02 11:05:44;;;;;;;5.32;1.80;;;;;;;;;;5094700;28;20169;-42
2021/06/02 11:08:10;;;;;;;4.72;1.50;;;;;;;;;;5099321;28;20205;-42
2021/06/02 11:10:36;;;;;;;2.03;1.50;;;;;;;;;;5099527;28;20212;-42
2021/06/02 11:13:03;;;;;;;5.07;1.80;;;;;;;;;;5104030;28;20180;-42
2021/06/02 11:15:29;;;;;;;6.30;1.85;;;;;;;;;;5097178;28;20179;-42
2021/06/02 11:18:21;;;;;;;3.80;1.88;;;;;;;;;;5112939;28;20592;-42
2021/06/02 11:20:55;;;;;;;4.72;1.80;;;;;;;;;;5093557;28;20652;-42
2021/06/02 11:23:22;;;;;;;4.78;2.17;;;;;;;;;;5095031;28;20169;-42
2021/06/02 11:25:49;;;;;;;5.18;1.70;;;;;;;;;;5094634;28;20178;-42
2021/06/02 11:28:33;;;;;;;2.00;1.48;;;;;;;;;;5114505;28;20173;-42
2021/06/02 11:31:18;;;;;;;3.75;1.42;;;;;;;;;;5100677;28;20193;-42
2021/06/02 11:33:44;;;;;;;2.85;1.40;;;;;;;;;;5100262;28;20559;-42
2021/06/02 11:36:10;;;;;;;4.35;1.48;;;;;;;;;;5095010;28;20211;-42
2021/06/02 11:38:37;;;;;;;3.47;1.65;;;;;;;;;;5098405;28;20433;-42
2021/06/02 11:41:03;;;;;;;3.53;1.48;;;;;;;;;;5094094;28;20205;-42
2021/06/02 11:43:29;;;;;;;4.72;1.50;;;;;;;;;;5094713;28;20460;-42
2021/06/02 11:45:59;;;;;;;2.05;1.67;;;;;;;;;;5094468;28;20449;-42
2021/06/02 11:48:25;;;;;;;1.63;1.48;;;;;;;;;;5106050;28;20308;-42
2021/06/02 11:50:52;;;;;;;1.60;1.50;;;;;;;;;;5112554;28;20273;-42
2021/06/02 11:53:19;;;;;;;3.10;1.60;;;;;;;;;;5077774;28;20196;-42
2021/06/02 11:55:45;;;;;;;2.65;1.70;;;;;;;;;;5096841;28;20192;-42
2021/06/02 11:58:11;;;;;;;4.43;1.98;;;;;;;;;;5111708;28;20718;-42
2021/06/02 12:00:37;;;;;;;3.42;1.92;;;;;;;;;;5106300;28;20181;-42
2021/06/02 12:03:10;;;;;;;3.85;2.03;;;;;;;;;;5094493;28;20177;-42
2021/06/02 12:05:40;;;;;;;3.33;1.98;;;;;;;;;;5094744;28;20169;-42
2021/06/02 12:08:10;;;;;;;4.30;1.95;;;;;;;;;;5104824;28;20527;-42
2021/06/02 12:10:38;;;;;;;1.83;1.38;;;;;;;;;;5103676;28;20205;-42
2021/06/02 12:13:05;;;;;;;3.90;1.90;;;;;;;;;;5079663;28;20544;-42
2021/06/02 12:15:52;;;;;;;3.70;1.95;;;;;;;;;;5094682;28;20243;-42
2021/06/02 12:18:37;;;;;;;3.45;1.40;;;;;;;;;;5094138;28;20435;-42
2021/06/02 12:21:06;;;;;;;5.63;1.60;;;;;;;;;;5093913;28;20205;-42
2021/06/02 12:23:32;;;;;;;4.65;1.92;;;;;;;;;;5094262;28;20170;-42
2021/06/02 12:25:58;;;;;;;3.38;2.03;;;;;;;;;;5097055;28;20252;-42
2021/06/02 12:28:24;;;;;;;2.28;1.55;;;;;;;;;;5094498;28;20228;-42
2021/06/02 12:30:50;;;;;;;2.28;1.50;;;;;;;;;;5093538;28;20189;-42
2021/06/02 12:33:16;;;;;;;2.22;1.50;;;;;;;;;;5094082;28;20174;-42
2021/06/02 12:35:43;;;;;;;2.38;1.60;;;;;;;;;;5094215;28;20422;-42
2021/06/02 12:38:12;;;;;;;1.90;1.50;;;;;;;;;;5094422;28;20541;-42
2021/06/02 12:40:44;;;;;;;2.83;1.90;;;;;;;;;;5093842;28;20228;-42
2021/06/02 12:43:11;;;;;;;2.33;1.50;;;;;;;;;;5093841;28;20177;-42
2021/06/02 12:45:37;;;;;;;3.25;1.48;;;;;;;;;;5093939;28;20173;-42
2021/06/02 12:48:03;;;;;;;2.38;1.70;;;;;;;;;;5076641;28;20166;-42
2021/06/02 12:50:49;;;;;;;1.83;1.63;;;;;;;;;;5093874;28;20173;-42
2021/06/02 12:53:17;;;;;;;2.03;1.50;;;;;;;;;;5094021;28;20265;-42
2021/06/02 12:55:44;;;;;;;2.10;1.58;;;;;;;;;;5093827;28;20186;-42
2021/06/02 12:58:12;;;;;;;5.53;1.80;;;;;;;;;;5097324;28;20257;-42
2021/06/02 13:00:39;;;;;;;1.60;1.48;;;;;;;;;;5097306;28;20174;-42
2021/06/02 13:03:05;;;;;;;3.47;1.40;;;;;;;;;;5112541;28;20200;-42
2021/06/02 13:05:31;;;;;;;1.92;1.48;;;;;;;;;;5099664;28;20261;-42
2021/06/02 13:08:05;;;;;;;2.42;1.45;;;;;;;;;;5097516;28;20508;-44
2021/06/02 13:10:31;;;;;;;1.83;1.50;;;;;;;;;;5097131;28;20882;-42
2021/06/02 13:12:58;;;;;;;2.65;1.60;;;;;;;;;;5097391;28;20548;-42
2021/06/02 13:15:26;;;;;;;2.25;1.30;;;;;;;;;;5103376;28;20177;-42
2021/06/02 13:17:52;;;;;;;1.50;1.40;;;;;;;;;;5097417;28;20212;-42
2021/06/02 13:20:31;;;;;;;1.45;1.30;;;;;;;;;;5097581;28;20205;-42
2021/06/02 13:23:07;;;;;;;1.42;1.30;;;;;;;;;;5097119;28;20183;-43
2021/06/02 13:25:33;;;;;;;1.42;1.08;;;;;;;;;;5098546;28;20177;-42
2021/06/02 13:28:04;;;;;;;1.50;1.30;;;;;;;;;;5117550;28;20207;-42
2021/06/02 13:30:40;;;;;;;1.83;1.38;;;;;;;;;;5112976;28;20185;-42
2021/06/02 13:33:06;;;;;;;2.13;1.40;;;;;;;;;;5097146;28;20169;-43
2021/06/02 13:35:32;;;;;;;1.52;1.20;;;;;;;;;;5096914;28;20174;-43
2021/06/02 13:37:58;;;;;;;1.98;1.30;;;;;;;;;;5108802;28;20184;-42
2021/06/02 13:40:50;;;;;;;1.85;1.30;;;;;;;;;;5096800;28;20178;-42
2021/06/02 13:43:18;;;;;;;1.13;1.02;;;;;;;;;;5091776;28;20471;-43
2021/06/02 13:45:58;;;;;;;1.25;1.15;;;;;;;;;;5096795;28;20193;-42
2021/06/02 13:48:37;;;;;;;1.23;1.10;;;;;;;;;;5096879;28;20238;-42
2021/06/02 13:51:32;;;;;;;2.00;1.13;;;;;;;;;;5106757;28;20181;-43
2021/06/02 13:54:02;;;;;;;1.33;1.23;;;;;;;;;;5101650;28;20182;-43
2021/06/02 13:56:28;;;;;;;1.60;1.15;;;;;;;;;;5096555;28;20178;-43
2021/06/02 13:59:10;;;;;;;1.65;1.33;;;;;;;;;;5096657;28;20185;-42
2021/06/02 14:01:37;;;;;;;1.50;1.40;;;;;;;;;;5095927;28;20186;-43
2021/06/02 14:04:03;;;;;;;1.42;1.33;;;;;;;;;;5115115;28;20181;-42
2021/06/02 14:06:29;;;;;;;1.23;1.13;;;;;;;;;;5116820;28;20548;-42
2021/06/02 14:08:55;;;;;;;1.42;1.20;;;;;;;;;;5106399;28;20182;-43
2021/06/02 14:11:24;;;;;;;1.65;1.23;;;;;;;;;;5095644;28;20182;-43
2021/06/02 14:13:50;;;;;;;1.95;1.00;;;;;;;;;;5096381;28;20176;-43
2021/06/02 14:16:20;;;;;;;1.23;1.13;;;;;;;;;;5096225;28;20611;-43
2021/06/02 14:18:46;;;;;;;1.58;1.10;;;;;;;;;;5095967;28;20231;-42
2021/06/02 14:21:12;;;;;;;1.20;1.10;;;;;;;;;;5095035;28;20212;-43
2021/06/02 14:23:38;;;;;;;2.17;1.10;;;;;;;;;;5096002;28;20173;-43
2021/06/02 14:26:04;;;;;;;1.40;1.30;;;;;;;;;;5097636;28;20485;-43
2021/06/02 14:28:30;;;;;;;1.33;1.05;;;;;;;;;;5116393;28;20166;-43
2021/06/02 14:30:56;;;;;;;1.42;1.13;;;;;;;;;;5115476;28;20177;-42
2021/06/02 14:33:22;;;;;;;1.58;1.08;;;;;;;;;;5112633;28;20182;-42
2021/06/02 14:35:48;;;;;;;1.10;1.00;;;;;;;;;;5095476;28;20174;-42
2021/06/02 14:38:14;;;;;;;1.50;1.40;;;;;;;;;;5100399;28;20187;-42
2021/06/02 14:40:41;;;;;;;1.20;1.10;;;;;;;;;;5096955;28;20273;-42
2021/06/02 14:43:08;;;;;;;1.50;1.23;;;;;;;;;;5096500;28;20252;-42
2021/06/02 14:45:34;;;;;;;1.45;1.10;;;;;;;;;;5096765;28;20183;-42
2021/06/02 14:48:00;;;;;;;1.20;1.10;;;;;;;;;;5097776;28;20455;-43
2021/06/02 14:50:26;;;;;;;1.45;1.10;;;;;;;;;;5100477;28;20177;-42
2021/06/02 14:52:56;;;;;;;1.10;1.00;;;;;;;;;;5100900;28;20276;-42
2021/06/02 14:55:26;;;;;;;1.77;1.27;;;;;;;;;;5102433;28;20176;-43
2021/06/02 14:57:52;;;;;;;2.13;1.50;;;;;;;;;;5101266;28;20188;-43
2021/06/02 15:00:19;;;;;;;2.45;1.20;;;;;;;;;;5078737;28;20223;-43
2021/06/02 15:02:45;;;;;;;2.10;1.02;;;;;;;;;;5103836;28;20218;-43
2021/06/02 15:05:11;;;;;;;1.23;0.95;;;;;;;;;;5110654;28;20187;-43